Time;durP1;ratioP1;P1;durP2;ratioP2;P2;SDS_P1;SDS_P2;PMS_P1;PMS_P2;Temp;Humidity;BMP_temperature;BMP_pressure;BME280_temperature;BME280_humidity;BME280_pressure;Samples;Min_cycle;Max_cycle;Signal;HPM_P1;HPM_P2
2024/01/11 00:01:46;;;;;;;41.07;20.37;;;-4.80;99.90;;;;;;5013245;28;20033;-73
2024/01/11 00:04:12;;;;;;;36.93;19.40;;;-4.90;99.90;;;;;;5012968;28;20042;-77
2024/01/11 00:06:45;;;;;;;38.60;20.47;;;-4.90;99.90;;;;;;5013058;28;20369;-72
2024/01/11 00:09:10;;;;;;;43.83;21.23;;;-4.90;99.90;;;;;;5013253;28;20053;-73
2024/01/11 00:11:36;;;;;;;40.37;20.50;;;-5.00;99.90;;;;;;5012307;28;20046;-73
2024/01/11 00:14:02;;;;;;;44.87;21.77;;;-5.00;99.90;;;;;;5013087;28;20053;-74
2024/01/11 00:16:28;;;;;;;39.00;20.87;;;-5.00;99.90;;;;;;5012840;28;20121;-75
2024/01/11 00:18:53;;;;;;;40.37;19.90;;;-5.00;99.90;;;;;;5012869;28;20046;-76
2024/01/11 00:21:19;;;;;;;39.87;20.97;;;-5.00;99.90;;;;;;5012676;28;20049;-75
2024/01/11 00:23:44;;;;;;;43.77;20.20;;;-5.10;99.90;;;;;;5012538;28;20038;-72
2024/01/11 00:26:13;;;;;;;41.90;20.90;;;-5.10;99.90;;;;;;5012679;28;20561;-79
2024/01/11 00:28:38;;;;;;;42.27;21.03;;;-5.10;99.90;;;;;;5012486;28;20041;-73
2024/01/11 00:31:04;;;;;;;43.07;20.63;;;-5.10;99.90;;;;;;4995032;28;20056;-77
2024/01/11 00:33:30;;;;;;;42.93;22.47;;;-5.20;99.90;;;;;;5012223;28;20722;-72
2024/01/11 00:35:56;;;;;;;39.70;20.43;;;-5.10;99.90;;;;;;5012168;28;20049;-75
2024/01/11 00:38:21;;;;;;;43.43;21.47;;;-5.10;99.90;;;;;;5012377;28;20045;-76
2024/01/11 00:40:47;;;;;;;42.47;21.63;;;-5.10;99.90;;;;;;5011661;28;20042;-73
2024/01/11 00:43:12;;;;;;;42.07;21.17;;;-5.10;99.90;;;;;;4994021;28;20092;-73
2024/01/11 00:45:38;;;;;;;39.37;20.50;;;-5.20;99.90;;;;;;5012002;28;20049;-73
2024/01/11 00:48:04;;;;;;;42.07;20.63;;;-5.20;99.90;;;;;;5012126;28;20038;-73
2024/01/11 00:50:30;;;;;;;44.90;22.80;;;-5.20;99.90;;;;;;5012263;28;20879;-80
2024/01/11 00:52:56;;;;;;;45.90;22.00;;;-5.20;99.90;;;;;;5011922;28;20046;-73
2024/01/11 00:55:21;;;;;;;43.77;22.43;;;-5.10;99.90;;;;;;5012229;28;20041;-78
2024/01/11 00:57:47;;;;;;;45.50;23.03;;;-5.10;99.90;;;;;;5012232;28;20493;-72
2024/01/11 01:00:13;;;;;;;42.33;20.80;;;-5.10;99.90;;;;;;4993857;28;20065;-76
2024/01/11 01:02:40;;;;;;;42.83;21.17;;;-5.20;99.90;;;;;;5012062;28;20061;-73
2024/01/11 01:05:06;;;;;;;40.60;20.93;;;-5.10;99.90;;;;;;5011963;28;20030;-71
2024/01/11 01:07:32;;;;;;;44.23;23.47;;;-5.10;99.90;;;;;;4994094;28;20059;-78
2024/01/11 01:09:58;;;;;;;48.27;23.70;;;-5.10;99.90;;;;;;5012051;28;20041;-73
2024/01/11 01:12:25;;;;;;;45.13;21.93;;;-5.10;99.90;;;;;;4993911;28;20056;-72
2024/01/11 01:14:51;;;;;;;44.90;22.47;;;-5.10;99.90;;;;;;5011207;28;20037;-76
2024/01/11 01:17:17;;;;;;;45.17;22.53;;;-5.10;99.90;;;;;;5011478;28;20149;-73
2024/01/11 01:19:43;;;;;;;51.07;24.20;;;-5.10;99.90;;;;;;5011724;28;20125;-73
2024/01/11 01:22:08;;;;;;;41.90;21.30;;;-5.20;99.90;;;;;;5011685;28;20045;-73
2024/01/11 01:24:34;;;;;;;43.10;21.57;;;-5.10;99.90;;;;;;5011906;28;20046;-74
2024/01/11 01:27:00;;;;;;;39.77;20.43;;;-5.20;99.90;;;;;;4994374;28;20044;-75
2024/01/11 01:29:26;;;;;;;47.47;22.67;;;-5.20;99.90;;;;;;5011910;28;20458;-77
2024/01/11 01:31:52;;;;;;;47.43;23.00;;;-5.20;99.90;;;;;;5010439;28;20038;-75
2024/01/11 01:34:18;;;;;;;43.97;21.50;;;-5.20;99.90;;;;;;4993960;28;20472;-76
2024/01/11 01:36:44;;;;;;;40.80;20.87;;;-5.20;99.90;;;;;;5011241;28;20069;-72
2024/01/11 01:39:11;;;;;;;38.93;21.10;;;-5.30;99.90;;;;;;5011166;28;20084;-78
2024/01/11 01:41:37;;;;;;;45.43;22.10;;;-5.30;99.90;;;;;;5011573;28;20038;-77
2024/01/11 01:44:02;;;;;;;41.37;20.77;;;-5.30;99.90;;;;;;5011307;28;20070;-74
2024/01/11 01:46:28;;;;;;;40.37;20.53;;;-5.30;99.90;;;;;;5010845;28;20052;-73
2024/01/11 01:48:57;;;;;;;36.60;19.50;;;-5.30;99.90;;;;;;5011063;28;20045;-77
2024/01/11 01:51:25;;;;;;;41.97;20.73;;;-5.40;99.90;;;;;;5010975;28;20124;-73
2024/01/11 01:53:53;;;;;;;43.57;21.13;;;-5.40;99.90;;;;;;5010566;28;20381;-77
2024/01/11 01:56:20;;;;;;;40.93;21.13;;;-5.40;99.90;;;;;;5003019;28;20049;-76
2024/01/11 01:58:46;;;;;;;41.63;21.30;;;-5.40;99.90;;;;;;5010907;28;20052;-73
2024/01/11 02:01:13;;;;;;;40.57;20.83;;;-5.40;99.90;;;;;;5010656;28;20041;-77
2024/01/11 02:03:40;;;;;;;42.20;20.33;;;-5.40;99.90;;;;;;5010370;28;20130;-75
2024/01/11 02:06:07;;;;;;;41.83;20.67;;;-5.50;99.90;;;;;;5010976;28;20043;-78
2024/01/11 02:08:34;;;;;;;42.93;21.10;;;-5.50;99.90;;;;;;5010567;28;20532;-73
2024/01/11 02:11:00;;;;;;;41.70;20.80;;;-5.50;99.90;;;;;;5010885;28;20056;-75
2024/01/11 02:13:26;;;;;;;45.43;22.47;;;-5.60;99.90;;;;;;5010191;28;20052;-75
2024/01/11 02:15:52;;;;;;;46.33;21.30;;;-5.60;99.90;;;;;;5010323;28;20038;-75
2024/01/11 02:18:18;;;;;;;45.47;21.37;;;-5.60;99.90;;;;;;5009969;28;20054;-72
2024/01/11 02:20:44;;;;;;;42.90;20.77;;;-5.60;99.90;;;;;;5010458;28;20060;-78
2024/01/11 02:23:17;;;;;;;39.53;20.17;;;-5.60;99.90;;;;;;5010223;28;20054;-72
2024/01/11 02:25:43;;;;;;;40.10;20.67;;;-5.60;99.90;;;;;;5010511;28;20045;-74
2024/01/11 02:28:08;;;;;;;40.60;19.47;;;-5.70;99.90;;;;;;5010312;28;20057;-75
2024/01/11 02:30:34;;;;;;;43.67;20.97;;;-5.70;99.90;;;;;;5010289;28;20076;-76
2024/01/11 02:33:01;;;;;;;45.63;21.33;;;-5.70;99.90;;;;;;5010142;28;20037;-73
2024/01/11 02:35:27;;;;;;;42.40;20.83;;;-5.70;99.90;;;;;;5009998;28;20052;-75
2024/01/11 02:37:54;;;;;;;39.90;20.57;;;-5.70;99.90;;;;;;5010103;28;20081;-73
2024/01/11 02:40:20;;;;;;;40.57;19.67;;;-5.70;99.90;;;;;;5010281;28;20584;-74
2024/01/11 02:42:45;;;;;;;39.40;20.50;;;-5.80;99.90;;;;;;4992146;28;20068;-73
2024/01/11 02:45:12;;;;;;;43.00;20.87;;;-5.80;99.90;;;;;;5010407;28;20050;-77
2024/01/11 02:47:38;;;;;;;39.47;19.27;;;-5.80;99.90;;;;;;5009922;28;20049;-73
2024/01/11 02:50:05;;;;;;;38.77;19.73;;;-5.80;99.90;;;;;;5009726;28;20371;-75
2024/01/11 02:52:31;;;;;;;40.17;20.10;;;-5.90;99.90;;;;;;5009763;28;20046;-74
2024/01/11 02:54:57;;;;;;;43.53;21.53;;;-5.90;99.90;;;;;;5010325;28;20046;-72
2024/01/11 02:57:22;;;;;;;41.37;20.37;;;-5.90;99.90;;;;;;5010083;28;20176;-74
2024/01/11 02:59:49;;;;;;;41.67;19.97;;;-5.90;99.90;;;;;;5010249;28;20582;-72
2024/01/11 03:02:15;;;;;;;38.67;19.83;;;-5.90;99.90;;;;;;5010808;28;20077;-72
2024/01/11 03:04:41;;;;;;;42.23;20.67;;;-5.30;99.90;;;;;;5014144;28;20081;-72
2024/01/11 03:07:07;;;;;;;42.20;20.53;;;-6.00;99.90;;;;;;4995333;28;20432;-73
2024/01/11 03:09:34;;;;;;;41.67;20.47;;;-6.00;99.90;;;;;;5013906;28;20104;-73
2024/01/11 03:11:59;;;;;;;45.47;21.43;;;-6.00;99.90;;;;;;5013271;28;20493;-77
2024/01/11 03:14:25;;;;;;;39.13;19.87;;;-6.00;99.90;;;;;;5013653;28;20053;-73
2024/01/11 03:16:50;;;;;;;38.10;18.83;;;-6.00;99.90;;;;;;5013688;28;20084;-75
2024/01/11 03:19:16;;;;;;;39.23;19.43;;;-6.00;99.90;;;;;;5013810;28;20054;-75
2024/01/11 03:21:46;;;;;;;39.70;19.10;;;-6.00;99.90;;;;;;5005059;28;20472;-75
2024/01/11 03:24:12;;;;;;;46.53;20.40;;;-6.00;99.90;;;;;;5013544;28;20068;-73
2024/01/11 03:26:38;;;;;;;39.07;19.83;;;-6.00;99.90;;;;;;5013978;28;20389;-72
2024/01/11 03:29:03;;;;;;;40.83;20.07;;;-6.00;99.90;;;;;;5013701;28;20042;-73
2024/01/11 03:31:29;;;;;;;42.63;20.20;;;-6.00;99.90;;;;;;5013448;28;20507;-71
2024/01/11 03:33:54;;;;;;;40.00;19.07;;;-6.00;99.90;;;;;;4995899;28;20045;-77
2024/01/11 03:36:24;;;;;;;39.40;18.67;;;-6.10;99.90;;;;;;4996053;28;20112;-75
2024/01/11 03:38:49;;;;;;;36.20;18.97;;;-6.10;99.90;;;;;;5013124;28;20104;-74
2024/01/11 03:41:15;;;;;;;41.10;19.90;;;-6.10;99.90;;;;;;5013865;28;20444;-74
2024/01/11 03:43:40;;;;;;;40.30;19.27;;;-4.60;99.90;;;;;;5013656;28;20054;-73
2024/01/11 03:46:06;;;;;;;41.07;19.50;;;-6.10;99.90;;;;;;5013530;28;20104;-74
2024/01/11 03:48:32;;;;;;;38.97;20.23;;;-6.10;99.90;;;;;;4996085;28;20836;-77
2024/01/11 03:50:58;;;;;;;42.53;19.80;;;-6.10;99.90;;;;;;5013197;28;20401;-72
2024/01/11 03:53:23;;;;;;;37.83;18.97;;;-6.20;99.90;;;;;;5012783;28;20049;-73
2024/01/11 03:55:49;;;;;;;42.20;20.77;;;-6.10;99.90;;;;;;5013076;28;20069;-73
2024/01/11 03:58:14;;;;;;;39.30;20.70;;;-6.10;99.90;;;;;;5012684;28;20077;-73
2024/01/11 04:00:40;;;;;;;40.97;19.30;;;-6.10;99.90;;;;;;5011801;28;20431;-72
2024/01/11 04:03:08;;;;;;;44.67;21.60;;;-6.20;99.90;;;;;;5011677;28;20045;-72
2024/01/11 04:05:34;;;;;;;44.20;21.07;;;-6.20;99.90;;;;;;5011702;28;20045;-71
2024/01/11 04:08:02;;;;;;;41.50;20.80;;;-6.20;99.90;;;;;;5011936;28;20049;-71
2024/01/11 04:10:28;;;;;;;44.87;21.00;;;-6.20;99.90;;;;;;5012884;28;20053;-72
2024/01/11 04:12:53;;;;;;;40.63;21.17;;;-6.20;99.90;;;;;;5012615;28;20053;-73
2024/01/11 04:15:20;;;;;;;38.00;18.93;;;-6.20;99.90;;;;;;5011774;28;20532;-71
2024/01/11 04:17:45;;;;;;;41.87;20.73;;;-6.20;99.90;;;;;;5012592;28;20046;-72
2024/01/11 04:20:11;;;;;;;39.93;21.00;;;-6.20;99.90;;;;;;5012757;28;20049;-73
2024/01/11 04:22:36;;;;;;;41.40;19.90;;;-6.10;99.90;;;;;;5012809;28;20117;-72
2024/01/11 04:25:02;;;;;;;41.20;21.43;;;-6.10;99.90;;;;;;5012583;28;20064;-72
2024/01/11 04:27:28;;;;;;;42.67;20.93;;;-6.10;99.90;;;;;;5012285;28;20125;-74
2024/01/11 04:29:54;;;;;;;45.63;21.10;;;-6.10;99.90;;;;;;5012489;28;20473;-74
2024/01/11 04:32:19;;;;;;;42.43;20.87;;;-6.10;99.90;;;;;;4994546;28;20058;-73
2024/01/11 04:34:45;;;;;;;40.23;20.17;;;-6.10;99.90;;;;;;5012370;28;20408;-72
2024/01/11 04:37:11;;;;;;;44.93;21.10;;;-6.10;99.90;;;;;;5012373;28;20051;-73
2024/01/11 04:39:36;;;;;;;42.17;21.30;;;-6.00;99.90;;;;;;5012406;28;20038;-71
2024/01/11 04:42:02;;;;;;;42.17;20.90;;;-6.00;99.90;;;;;;5011719;28;20121;-73
2024/01/11 04:44:28;;;;;;;47.90;22.73;;;-6.00;99.90;;;;;;5011893;28;20061;-71
2024/01/11 04:46:53;;;;;;;46.53;22.00;;;-5.90;99.90;;;;;;5007807;28;20045;-73
2024/01/11 04:49:19;;;;;;;44.60;21.57;;;-5.90;99.90;;;;;;5011966;28;20378;-75
2024/01/11 04:51:44;;;;;;;44.73;21.97;;;-5.90;99.90;;;;;;4994510;28;20134;-75
2024/01/11 04:54:10;;;;;;;44.17;21.03;;;-5.80;99.90;;;;;;5012354;28;20065;-72
2024/01/11 04:56:36;;;;;;;42.93;21.37;;;-5.70;99.90;;;;;;5011906;28;20054;-72
2024/01/11 04:59:01;;;;;;;44.33;21.73;;;-5.70;99.90;;;;;;5011223;28;20033;-72
2024/01/11 05:01:27;;;;;;;45.40;23.17;;;-5.70;99.90;;;;;;4993926;28;20508;-72
2024/01/11 05:03:53;;;;;;;45.37;20.07;;;-5.60;99.90;;;;;;4994064;28;20509;-76
2024/01/11 05:06:20;;;;;;;46.33;21.73;;;-5.50;99.90;;;;;;5011798;28;20046;-74
2024/01/11 05:08:52;;;;;;;46.57;22.60;;;-5.50;99.90;;;;;;5011551;28;20042;-72
2024/01/11 05:11:24;;;;;;;46.33;20.90;;;-5.40;99.90;;;;;;5009244;28;20037;-75
2024/01/11 05:13:51;;;;;;;44.90;22.00;;;-5.30;99.90;;;;;;5006743;28;20045;-72
2024/01/11 05:16:22;;;;;;;47.57;22.90;;;-5.30;99.90;;;;;;5011294;28;20042;-71
2024/01/11 05:18:48;;;;;;;50.13;22.93;;;-5.20;99.90;;;;;;5011697;28;20129;-73
2024/01/11 05:21:14;;;;;;;45.73;22.13;;;-5.20;99.90;;;;;;5011409;28;20053;-76
2024/01/11 05:23:43;;;;;;;49.47;24.47;;;-5.10;99.90;;;;;;5011068;28;20054;-73
2024/01/11 05:26:14;;;;;;;52.53;24.63;;;-5.10;99.90;;;;;;5010958;28;20045;-74
2024/01/11 05:28:40;;;;;;;50.30;23.43;;;-5.00;99.90;;;;;;5003685;28;20085;-72
2024/01/11 05:31:07;;;;;;;47.23;21.47;;;-5.00;99.90;;;;;;4991963;28;20131;-71
2024/01/11 05:33:34;;;;;;;46.73;22.93;;;-4.90;99.90;;;;;;5010042;28;20053;-72
2024/01/11 05:35:59;;;;;;;55.43;25.60;;;-4.80;99.90;;;;;;5011151;28;20042;-73
2024/01/11 05:38:25;;;;;;;57.90;28.07;;;-4.80;99.90;;;;;;4993328;28;20045;-72
2024/01/11 05:40:50;;;;;;;64.30;30.83;;;-4.80;99.90;;;;;;5011428;28;20085;-72
2024/01/11 05:43:16;;;;;;;78.23;36.57;;;-4.70;99.90;;;;;;5011006;28;20560;-72
2024/01/11 05:45:42;;;;;;;74.47;34.80;;;-4.60;99.90;;;;;;5009806;28;20053;-73
2024/01/11 05:48:07;;;;;;;62.03;30.67;;;-4.60;99.90;;;;;;4993709;28;20802;-73
2024/01/11 05:50:33;;;;;;;52.30;27.37;;;-4.50;99.90;;;;;;4993920;28;20089;-72
2024/01/11 05:52:58;;;;;;;59.13;30.13;;;-4.50;99.90;;;;;;5010664;28;20045;-72
2024/01/11 05:55:24;;;;;;;53.30;25.43;;;-4.40;99.90;;;;;;5010627;28;20076;-72
2024/01/11 05:57:50;;;;;;;52.70;24.90;;;-4.30;99.90;;;;;;4992950;28;20042;-73
2024/01/11 06:00:16;;;;;;;52.03;24.63;;;-4.30;99.90;;;;;;5010547;28;20038;-72
2024/01/11 06:02:41;;;;;;;48.63;24.27;;;-4.30;99.90;;;;;;5003597;28;20046;-75
2024/01/11 06:05:12;;;;;;;56.65;26.35;;;-4.20;99.90;;;;;;5010738;28;20136;-76
2024/01/11 06:07:38;;;;;;;51.78;25.00;;;-4.10;99.90;;;;;;4993125;28;20108;-73
2024/01/11 06:10:06;;;;;;;56.77;26.43;;;-4.10;99.90;;;;;;5010912;28;20041;-71
2024/01/11 06:12:32;;;;;;;52.77;24.97;;;-4.00;99.90;;;;;;5010469;28;20481;-76
2024/01/11 06:14:58;;;;;;;50.27;25.73;;;-4.00;99.90;;;;;;4992760;28;20056;-72
2024/01/11 06:17:24;;;;;;;52.30;25.17;;;-4.00;99.90;;;;;;5009925;28;20041;-75
2024/01/11 06:19:50;;;;;;;54.50;25.77;;;-3.80;99.90;;;;;;5010354;28;20142;-73
2024/01/11 06:22:16;;;;;;;52.78;25.38;;;-3.80;99.90;;;;;;5010047;28;20041;-73
2024/01/11 06:24:41;;;;;;;50.40;24.27;;;-3.80;99.90;;;;;;5010406;28;20092;-73
2024/01/11 06:27:07;;;;;;;49.25;23.92;;;-3.80;99.90;;;;;;5010239;28;20050;-73
2024/01/11 06:29:32;;;;;;;52.63;25.30;;;-3.70;99.90;;;;;;5010224;28;20467;-74
2024/01/11 06:31:58;;;;;;;52.55;26.50;;;-3.70;99.90;;;;;;5010114;28;20049;-72
2024/01/11 06:34:24;;;;;;;49.53;24.65;;;-3.60;99.90;;;;;;5009890;28;20095;-75
2024/01/11 06:36:49;;;;;;;55.03;26.75;;;-3.60;99.90;;;;;;5009793;28;20119;-74
2024/01/11 06:39:15;;;;;;;50.13;25.42;;;-3.50;99.90;;;;;;5010279;28;20100;-72
2024/01/11 06:41:41;;;;;;;53.47;26.25;;;-3.50;99.90;;;;;;5009951;28;20374;-72
2024/01/11 06:44:06;;;;;;;53.78;26.15;;;-3.50;99.90;;;;;;5009826;28;20050;-73
2024/01/11 06:46:32;;;;;;;49.83;24.60;;;-3.40;99.90;;;;;;5010244;28;20123;-73
2024/01/11 06:48:58;;;;;;;53.25;26.35;;;-3.30;99.90;;;;;;5010063;28;20103;-75
2024/01/11 06:51:24;;;;;;;55.78;26.92;;;-3.30;99.90;;;;;;5009990;28;20057;-72
2024/01/11 06:53:50;;;;;;;54.13;26.77;;;-3.20;99.90;;;;;;5010061;28;20061;-74
2024/01/11 06:56:17;;;;;;;53.88;26.85;;;-3.20;99.90;;;;;;5009507;28;20050;-73
2024/01/11 06:58:46;;;;;;;52.55;26.02;;;-3.10;99.90;;;;;;5010123;28;20398;-73
2024/01/11 07:01:12;;;;;;;54.95;26.05;;;-3.10;99.90;;;;;;4996861;28;20056;-73
2024/01/11 07:03:38;;;;;;;57.03;28.02;;;-3.10;99.90;;;;;;5005365;28;20038;-74
2024/01/11 07:06:04;;;;;;;55.70;26.08;;;-3.00;99.90;;;;;;5009504;28;20069;-74
2024/01/11 07:08:32;;;;;;;50.45;24.20;;;-3.00;99.90;;;;;;5009536;28;20175;-76
2024/01/11 07:10:58;;;;;;;48.63;24.60;;;-3.00;99.90;;;;;;5009923;28;20049;-74
2024/01/11 07:13:24;;;;;;;54.97;26.48;;;-2.90;99.90;;;;;;4984152;28;20049;-72
2024/01/11 07:15:51;;;;;;;57.58;26.45;;;-2.90;99.90;;;;;;5009930;28;20051;-73
2024/01/11 07:18:17;;;;;;;54.63;26.30;;;-2.90;99.90;;;;;;5010172;28;20041;-74
2024/01/11 07:20:43;;;;;;;53.55;26.92;;;-2.80;99.90;;;;;;5009593;28;20056;-73
2024/01/11 07:23:09;;;;;;;50.92;25.88;;;-2.80;99.90;;;;;;4992115;28;20033;-74
2024/01/11 07:25:35;;;;;;;50.83;25.23;;;-2.60;99.90;;;;;;5001582;28;20489;-74
2024/01/11 07:28:01;;;;;;;49.90;25.30;;;-2.70;99.90;;;;;;4992166;28;20104;-73
2024/01/11 07:30:26;;;;;;;48.20;23.52;;;-2.70;99.90;;;;;;5009931;28;20045;-76
2024/01/11 07:32:52;;;;;;;55.35;26.52;;;-2.70;99.90;;;;;;5009571;28;20493;-76
2024/01/11 07:35:18;;;;;;;53.38;28.05;;;-2.60;99.90;;;;;;4992416;28;20124;-73
2024/01/11 07:37:43;;;;;;;53.78;26.27;;;-2.60;99.90;;;;;;5009250;28;20054;-72
2024/01/11 07:40:10;;;;;;;53.70;26.17;;;-2.50;99.90;;;;;;5010055;28;20054;-72
2024/01/11 07:42:40;;;;;;;53.72;26.42;;;-2.50;99.90;;;;;;5009378;28;20085;-74
2024/01/11 07:45:07;;;;;;;52.65;25.58;;;-2.50;99.90;;;;;;5009562;28;20046;-74
2024/01/11 07:47:33;;;;;;;54.95;26.88;;;-2.50;99.90;;;;;;5010029;28;20454;-75
2024/01/11 07:49:59;;;;;;;53.00;27.23;;;-2.50;99.90;;;;;;4995554;28;20796;-72
2024/01/11 07:52:24;;;;;;;49.08;25.80;;;-2.40;99.90;;;;;;5012773;28;20050;-74
2024/01/11 07:54:50;;;;;;;51.63;25.42;;;-2.40;99.90;;;;;;5012861;28;20444;-74
2024/01/11 07:57:16;;;;;;;52.50;25.83;;;-2.40;99.90;;;;;;5013034;28;20053;-74
2024/01/11 07:59:42;;;;;;;52.22;26.05;;;-2.30;99.90;;;;;;5013283;28;20084;-76
2024/01/11 08:02:08;;;;;;;54.75;26.98;;;-2.30;99.90;;;;;;5012664;28;20433;-72
2024/01/11 08:04:33;;;;;;;53.55;27.33;;;-2.30;99.90;;;;;;5010721;28;20046;-73
2024/01/11 08:06:59;;;;;;;57.05;26.80;;;-2.30;99.90;;;;;;5012713;28;20041;-75
2024/01/11 08:09:26;;;;;;;54.17;26.25;;;-2.30;99.90;;;;;;4994969;28;20053;-73
2024/01/11 08:11:54;;;;;;;54.95;26.83;;;-2.20;99.90;;;;;;5012559;28;20112;-74
2024/01/11 08:14:20;;;;;;;51.33;25.95;;;-2.20;99.90;;;;;;5012583;28;20596;-73
2024/01/11 08:16:45;;;;;;;51.95;25.88;;;-2.10;99.90;;;;;;5012470;28;20405;-73
2024/01/11 08:19:13;;;;;;;53.45;26.50;;;-2.10;99.90;;;;;;5012418;28;20048;-76
2024/01/11 08:21:39;;;;;;;53.38;26.63;;;-2.10;99.90;;;;;;5012576;28;20116;-74
2024/01/11 08:24:06;;;;;;;55.00;26.02;;;-2.00;99.90;;;;;;5012645;28;20129;-73
2024/01/11 08:26:32;;;;;;;53.50;26.92;;;-2.00;99.90;;;;;;5012035;28;20045;-73
2024/01/11 08:28:58;;;;;;;55.08;27.27;;;-2.00;99.90;;;;;;5012604;28;20044;-74
2024/01/11 08:31:23;;;;;;;51.78;26.83;;;-2.00;99.90;;;;;;5012344;28;20033;-72
2024/01/11 08:33:50;;;;;;;49.78;24.75;;;-1.90;99.90;;;;;;5012446;28;20508;-73
2024/01/11 08:36:16;;;;;;;52.70;25.52;;;-1.90;99.90;;;;;;5012532;28;20456;-73
2024/01/11 08:38:42;;;;;;;53.08;26.95;;;-1.90;99.90;;;;;;5012345;28;20128;-73
2024/01/11 08:41:07;;;;;;;48.80;25.35;;;-1.80;99.90;;;;;;5011801;28;20050;-76
2024/01/11 08:43:33;;;;;;;50.17;25.55;;;-1.80;99.90;;;;;;4993872;28;20061;-74
2024/01/11 08:45:59;;;;;;;50.53;26.48;;;-1.70;99.90;;;;;;5012113;28;20081;-74
2024/01/11 08:48:28;;;;;;;50.80;26.40;;;-1.70;99.90;;;;;;5012065;28;20057;-74
2024/01/11 08:50:53;;;;;;;49.17;24.73;;;-1.60;99.90;;;;;;5011775;28;20046;-73
2024/01/11 08:53:19;;;;;;;51.03;26.80;;;-1.60;99.90;;;;;;5011938;28;20053;-77
2024/01/11 08:55:45;;;;;;;51.65;25.85;;;-1.60;99.90;;;;;;5011988;28;20049;-73
2024/01/11 08:58:11;;;;;;;57.40;26.55;;;-1.60;99.90;;;;;;4993893;28;20046;-75
2024/01/11 09:00:37;;;;;;;50.90;26.50;;;-1.50;99.90;;;;;;5010300;28;20049;-72
2024/01/11 09:03:03;;;;;;;50.33;26.48;;;-1.50;99.90;;;;;;5008211;28;20104;-72
2024/01/11 09:05:29;;;;;;;54.33;27.27;;;-1.40;99.90;;;;;;4992823;28;20801;-77
2024/01/11 09:07:55;;;;;;;48.60;26.70;;;-0.70;99.90;;;;;;5011592;28;20088;-73
2024/01/11 09:10:21;;;;;;;50.28;25.88;;;-1.30;99.90;;;;;;5011638;28;20038;-74
2024/01/11 09:12:46;;;;;;;54.20;26.65;;;-1.30;99.90;;;;;;4993145;28;20107;-74
2024/01/11 09:15:12;;;;;;;51.50;25.63;;;-1.30;99.90;;;;;;5011404;28;20413;-73
2024/01/11 09:17:39;;;;;;;47.55;24.85;;;-1.20;99.90;;;;;;5011689;28;20132;-75
2024/01/11 09:20:05;;;;;;;47.03;24.20;;;-1.20;99.90;;;;;;5011084;28;20077;-74
2024/01/11 09:22:31;;;;;;;46.42;24.48;;;-1.10;99.90;;;;;;5000321;28;20509;-74
2024/01/11 09:24:56;;;;;;;55.10;26.77;;;-1.10;99.90;;;;;;5003011;28;20125;-75
2024/01/11 09:27:22;;;;;;;45.33;24.02;;;-1.10;99.90;;;;;;5005527;28;20148;-75
2024/01/11 09:29:48;;;;;;;43.90;23.67;;;-1.00;99.90;;;;;;5004341;28;20041;-72
2024/01/11 09:32:14;;;;;;;44.75;23.30;;;-1.00;99.90;;;;;;5011180;28;20050;-73
2024/01/11 09:34:39;;;;;;;46.72;24.23;;;-0.90;99.90;;;;;;5011130;28;20893;-74
2024/01/11 09:37:05;;;;;;;48.33;25.27;;;-0.90;99.90;;;;;;5011572;28;20038;-73
2024/01/11 09:39:31;;;;;;;42.70;22.98;;;-0.80;99.90;;;;;;5011303;28;20555;-75
2024/01/11 09:42:18;;;;;;;44.88;23.80;;;-0.80;99.90;;;;;;5011500;28;20044;-74
2024/01/11 09:44:44;;;;;;;42.40;24.15;;;-0.70;99.90;;;;;;5009183;28;20163;-78
2024/01/11 09:47:11;;;;;;;41.83;21.70;;;-0.70;99.90;;;;;;5011150;28;20132;-74
2024/01/11 09:49:38;;;;;;;42.83;23.00;;;-0.60;99.90;;;;;;5011170;28;20061;-76
2024/01/11 09:52:05;;;;;;;44.13;22.95;;;-0.60;99.90;;;;;;5010677;28;20069;-77
2024/01/11 09:54:31;;;;;;;42.70;22.60;;;-0.50;99.90;;;;;;4993607;28;20054;-83
2024/01/11 09:56:59;;;;;;;44.47;23.08;;;-0.30;99.90;;;;;;5010325;28;20045;-75
2024/01/11 09:59:26;;;;;;;39.47;21.00;;;-0.40;99.90;;;;;;5010780;28;20128;-77
2024/01/11 10:01:52;;;;;;;43.30;22.65;;;-0.40;99.90;;;;;;5010595;28;20103;-77
2024/01/11 10:04:18;;;;;;;44.95;23.02;;;-0.30;99.90;;;;;;4993027;28;20132;-78
2024/01/11 10:06:44;;;;;;;40.25;22.30;;;-0.30;99.90;;;;;;5010849;28;20128;-77
2024/01/11 10:09:10;;;;;;;40.13;22.10;;;-0.30;99.90;;;;;;4992972;28;20056;-77
2024/01/11 10:11:36;;;;;;;41.17;22.30;;;-0.20;99.90;;;;;;5009720;28;20034;-76
2024/01/11 10:14:02;;;;;;;39.70;21.75;;;-0.20;99.90;;;;;;4993012;28;20048;-76
2024/01/11 10:16:28;;;;;;;42.10;21.15;;;-0.20;99.90;;;;;;5010160;28;20048;-76
2024/01/11 10:18:55;;;;;;;42.80;22.50;;;-0.10;99.90;;;;;;4993029;28;20046;-78
2024/01/11 10:21:21;;;;;;;45.45;23.83;;;-0.10;99.90;;;;;;5010168;28;20037;-78
2024/01/11 10:23:48;;;;;;;42.13;21.55;;;-0.10;99.90;;;;;;5010662;28;20103;-79
2024/01/11 10:26:17;;;;;;;39.95;20.95;;;0.00;99.90;;;;;;5010162;28;20438;-76
2024/01/11 10:28:46;;;;;;;41.92;22.27;;;0.00;99.90;;;;;;5010451;28;20485;-76
2024/01/11 10:31:14;;;;;;;43.35;22.00;;;0.10;99.90;;;;;;5010336;28;20057;-76
2024/01/11 10:33:40;;;;;;;41.13;22.60;;;0.10;99.90;;;;;;5009839;28;20072;-78
2024/01/11 10:36:09;;;;;;;40.83;21.73;;;0.10;99.90;;;;;;5010548;28;20085;-76
2024/01/11 10:38:39;;;;;;;44.85;22.40;;;0.20;99.90;;;;;;5010455;28;20400;-76
2024/01/11 10:41:06;;;;;;;46.78;24.48;;;0.20;99.90;;;;;;5010322;28;20109;-77
2024/01/11 10:43:35;;;;;;;44.83;24.15;;;0.20;99.90;;;;;;5005642;28;20069;-75
2024/01/11 10:46:04;;;;;;;44.78;24.35;;;0.30;99.90;;;;;;5010200;28;20057;-76
2024/01/11 10:48:34;;;;;;;49.60;24.52;;;0.30;99.90;;;;;;5009737;28;20481;-75
2024/01/11 10:51:02;;;;;;;50.83;25.80;;;0.30;99.90;;;;;;5001836;28;20056;-76
2024/01/11 10:53:45;;;;;;;50.70;25.23;;;0.30;99.90;;;;;;5010034;28;20111;-83
2024/01/11 10:56:15;;;;;;;53.65;24.85;;;0.40;99.90;;;;;;5003088;28;20049;-76
2024/01/11 10:58:42;;;;;;;45.63;24.38;;;0.40;99.90;;;;;;5010134;28;20133;-76
2024/01/11 11:01:08;;;;;;;48.63;24.52;;;0.40;99.90;;;;;;4992529;28;20089;-77
2024/01/11 11:03:36;;;;;;;46.70;24.90;;;0.40;99.90;;;;;;5009189;28;20557;-76
2024/01/11 11:06:03;;;;;;;47.42;25.63;;;0.50;99.90;;;;;;5009120;28;20061;-76
2024/01/11 11:08:29;;;;;;;42.88;23.08;;;0.50;99.90;;;;;;4991795;28;20128;-78
2024/01/11 11:10:57;;;;;;;46.85;23.88;;;0.50;99.90;;;;;;5010387;28;20117;-76
2024/01/11 11:13:23;;;;;;;45.90;23.80;;;0.50;99.90;;;;;;5002059;28;20046;-76
2024/01/11 11:15:48;;;;;;;40.47;22.83;;;0.50;99.90;;;;;;5004810;28;20048;-76
2024/01/11 11:18:18;;;;;;;41.58;22.50;;;0.60;99.90;;;;;;5010061;28;20046;-75
2024/01/11 11:20:45;;;;;;;39.25;22.17;;;0.60;99.90;;;;;;4991054;28;20088;-76
2024/01/11 11:23:20;;;;;;;39.50;21.98;;;0.60;99.90;;;;;;5010782;28;20471;-76
2024/01/11 11:25:47;;;;;;;37.35;20.58;;;0.70;99.90;;;;;;4995489;28;20820;-75
2024/01/11 11:28:15;;;;;;;38.33;20.13;;;0.70;99.90;;;;;;5014301;28;20782;-77
2024/01/11 11:30:42;;;;;;;36.67;20.77;;;0.70;99.90;;;;;;4995943;28;20126;-77
2024/01/11 11:33:23;;;;;;;35.17;19.27;;;0.80;99.90;;;;;;4995766;28;20113;-78
2024/01/11 11:35:54;;;;;;;35.58;19.95;;;0.80;99.90;;;;;;5006173;28;20393;-76
2024/01/11 11:38:25;;;;;;;34.60;18.30;;;0.90;99.90;;;;;;5014393;28;20058;-78
2024/01/11 11:40:53;;;;;;;37.28;19.40;;;0.90;99.90;;;;;;5006200;28;20041;-77
2024/01/11 11:43:20;;;;;;;35.28;18.05;;;0.90;99.90;;;;;;5013510;28;20092;-78
2024/01/11 11:45:48;;;;;;;42.25;19.27;;;0.90;99.90;;;;;;5013313;28;20062;-78
2024/01/11 11:48:29;;;;;;;37.03;18.90;;;1.00;99.90;;;;;;5013369;28;20050;-78
2024/01/11 11:51:14;;;;;;;32.65;18.20;;;1.00;99.90;;;;;;4995501;28;20057;-77
2024/01/11 11:53:41;;;;;;;36.78;19.98;;;1.10;99.90;;;;;;4995247;28;20062;-76
2024/01/11 11:56:14;;;;;;;34.55;18.95;;;2.10;99.90;;;;;;5013307;28;20041;-78
2024/01/11 11:58:40;;;;;;;35.55;19.58;;;1.10;99.90;;;;;;5012940;28;20493;-76
2024/01/11 12:01:06;;;;;;;36.80;19.13;;;1.10;99.90;;;;;;4995560;28;20137;-79
2024/01/11 12:03:39;;;;;;;35.90;18.35;;;1.10;99.90;;;;;;5012905;28;20053;-78
2024/01/11 12:06:06;;;;;;;33.80;19.42;;;1.20;99.90;;;;;;4994713;28;20061;-78
2024/01/11 12:08:32;;;;;;;34.42;18.63;;;1.20;99.90;;;;;;4994593;28;20045;-79
2024/01/11 12:10:58;;;;;;;35.88;18.77;;;1.20;99.90;;;;;;4995096;28;20053;-81
2024/01/11 12:13:27;;;;;;;41.22;18.48;;;1.20;99.90;;;;;;5012361;28;20397;-82
2024/01/11 12:15:52;;;;;;;33.20;18.80;;;1.10;99.90;;;;;;4995000;28;20042;-79
2024/01/11 12:18:18;;;;;;;37.17;19.48;;;1.20;99.90;;;;;;4995006;28;20403;-80
2024/01/11 12:20:44;;;;;;;33.83;18.65;;;2.20;99.90;;;;;;4994996;28;20046;-79
2024/01/11 12:23:10;;;;;;;38.05;20.33;;;1.20;99.90;;;;;;5011887;28;20050;-79
2024/01/11 12:25:36;;;;;;;38.13;19.55;;;1.20;99.90;;;;;;5012431;28;20045;-80